Time;durP1;ratioP1;P1;durP2;ratioP2;P2;SDS_P1;SDS_P2;PMS_P1;PMS_P2;Temp;Humidity;BMP_temperature;BMP_pressure;BME280_temperature;BME280_humidity;BME280_pressure;Samples;Min_cycle;Max_cycle;Signal;HPM_P1;HPM_P2
2021/11/11 00:01:06;;;;;;;17.67;12.73;;;;;;;15.36;73.88;101911.41;5057800;28;20170;-60
2021/11/11 00:03:32;;;;;;;25.30;19.27;;;;;;;16.60;65.00;101910.44;5040131;28;20173;-60
2021/11/11 00:05:58;;;;;;;35.57;28.43;;;;;;;13.50;68.33;101925.66;5056502;28;20456;-74
2021/11/11 00:08:23;;;;;;;47.13;28.60;;;;;;;11.60;75.46;101930.44;5057505;28;20177;-75
2021/11/11 00:10:48;;;;;;;43.00;30.27;;;;;;;11.12;78.17;101937.03;5057120;28;20194;-76
2021/11/11 00:13:14;;;;;;;52.93;32.73;;;;;;;11.08;79.06;101933.50;5039895;28;20585;-74
2021/11/11 00:15:40;;;;;;;52.57;34.83;;;;;;;10.58;81.14;101928.63;5057453;28;20173;-74
2021/11/11 00:18:05;;;;;;;54.57;34.57;;;;;;;10.68;81.42;101924.56;5058783;28;20181;-74
2021/11/11 00:20:31;;;;;;;63.33;37.30;;;;;;;10.68;80.79;101916.72;5057362;28;20421;-72
2021/11/11 00:22:57;;;;;;;67.13;37.47;;;;;;;10.32;83.30;101919.13;5057658;28;20535;-75
2021/11/11 00:25:24;;;;;;;61.03;37.40;;;;;;;10.22;83.47;101924.06;5060793;28;20480;-73
2021/11/11 00:27:50;;;;;;;66.93;40.57;;;;;;;10.45;82.52;101924.78;5060660;28;20569;-74
2021/11/11 00:30:17;;;;;;;62.03;38.40;;;;;;;10.19;83.55;101929.19;5043530;28;20394;-74
2021/11/11 00:32:43;;;;;;;76.63;39.90;;;;;;;10.14;83.50;101922.94;5060447;28;20292;-75
2021/11/11 00:35:12;;;;;;;82.97;41.03;;;;;;;10.13;83.73;101917.69;5059474;28;20536;-70
2021/11/11 00:37:38;;;;;;;100.70;42.23;;;;;;;9.88;84.77;101916.94;5061037;28;20390;-70
2021/11/11 00:40:05;;;;;;;69.60;38.53;;;;;;;10.10;84.50;101921.09;5060561;28;20508;-72
2021/11/11 00:42:30;;;;;;;73.50;39.83;;;;;;;10.05;85.25;101925.25;5060455;28;20231;-73
2021/11/11 00:44:56;;;;;;;75.23;41.43;;;;;;;9.91;85.59;101907.47;5060665;28;20399;-74
2021/11/11 00:47:21;;;;;;;77.50;40.97;;;;;;;9.87;86.16;101917.78;5060397;28;20601;-72
2021/11/11 00:49:46;;;;;;;79.00;43.07;;;;;;;9.94;85.27;101909.31;5059978;28;20472;-73
2021/11/11 00:52:12;;;;;;;87.03;42.80;;;;;;;10.16;84.83;101917.78;5060162;28;20259;-72
2021/11/11 00:54:39;;;;;;;85.67;42.57;;;;;;;10.16;84.25;101921.28;5060101;28;20533;-71
2021/11/11 00:57:05;;;;;;;86.80;42.07;;;;;;;9.83;85.96;101929.81;5043066;28;20181;-72
2021/11/11 00:59:31;;;;;;;77.43;42.97;;;;;;;10.01;85.81;101924.31;5042592;28;20399;-71
2021/11/11 01:01:56;;;;;;;92.80;44.50;;;;;;;10.17;84.82;101924.75;5059976;28;20423;-73
2021/11/11 01:04:22;;;;;;;76.13;40.13;;;;;;;10.21;84.26;101931.84;5043059;28;20176;-72
2021/11/11 01:06:47;;;;;;;88.57;45.30;;;;;;;9.94;85.16;101917.13;5059715;28;20177;-72
2021/11/11 01:09:12;;;;;;;90.87;44.07;;;;;;;9.91;85.51;101930.94;5059927;28;20174;-72
2021/11/11 01:11:39;;;;;;;87.53;44.60;;;;;;;9.94;85.26;101928.44;5060091;28;20188;-72
2021/11/11 01:14:04;;;;;;;98.03;46.10;;;;;;;10.22;84.19;101941.44;5059834;28;20216;-72
2021/11/11 01:16:29;;;;;;;87.03;42.47;;;;;;;9.92;85.46;101931.84;5059825;28;20391;-71
2021/11/11 01:18:55;;;;;;;86.17;43.37;;;;;;;9.90;86.21;101929.19;5059801;28;20170;-70
2021/11/11 01:21:20;;;;;;;81.87;44.80;;;;;;;10.00;85.57;101935.56;5059712;28;20583;-72
2021/11/11 01:23:46;;;;;;;79.40;43.50;;;;;;;9.96;85.71;101936.31;5059367;28;20458;-72
2021/11/11 01:26:11;;;;;;;76.00;41.50;;;;;;;10.01;85.57;101944.25;5060218;28;20197;-72
2021/11/11 01:28:37;;;;;;;83.90;44.07;;;;;;;9.86;86.22;101939.44;5059544;28;20173;-74
2021/11/11 01:31:02;;;;;;;77.17;41.93;;;;;;;9.75;86.10;101936.50;5059578;28;20189;-72
2021/11/11 01:33:28;;;;;;;70.77;40.70;;;;;;;10.19;84.42;101934.41;5060003;28;20193;-74
2021/11/11 01:35:53;;;;;;;78.37;43.13;;;;;;;10.05;84.78;101930.47;5058865;28;20165;-72
2021/11/11 01:38:19;;;;;;;72.13;42.17;;;;;;;10.19;83.75;101936.09;5059549;28;20538;-72
2021/11/11 01:40:45;;;;;;;74.80;41.90;;;;;;;10.04;84.56;101934.81;5059342;28;20189;-71
2021/11/11 01:43:11;;;;;;;66.93;42.00;;;;;;;10.16;85.14;101936.00;5059336;28;20473;-74
2021/11/11 01:45:38;;;;;;;67.27;43.77;;;;;;;10.20;84.35;101936.19;5059274;28;20443;-73
2021/11/11 01:48:06;;;;;;;65.60;40.70;;;;;;;10.02;84.67;101931.25;5059732;28;20176;-72
2021/11/11 01:50:31;;;;;;;72.07;42.30;;;;;;;9.87;84.88;101926.47;5059328;28;20670;-71
2021/11/11 01:52:58;;;;;;;68.73;41.27;;;;;;;10.15;84.54;101926.41;5058673;28;20475;-72
2021/11/11 01:55:23;;;;;;;61.87;39.73;;;;;;;10.24;83.30;101922.41;5059425;28;20205;-72
2021/11/11 01:57:50;;;;;;;58.40;38.90;;;;;;;10.24;83.92;101924.09;5058929;28;20399;-72
2021/11/11 02:00:19;;;;;;;63.17;39.63;;;;;;;10.18;84.63;101916.13;5059139;28;20241;-71
2021/11/11 02:02:44;;;;;;;60.67;40.73;;;;;;;10.24;84.28;101911.06;5059282;28;20428;-72
2021/11/11 02:05:10;;;;;;;56.60;37.80;;;;;;;10.15;84.10;101919.50;5059112;28;20436;-70
2021/11/11 02:07:36;;;;;;;56.80;38.60;;;;;;;10.21;83.62;101917.06;5058965;28;20463;-74
2021/11/11 02:10:02;;;;;;;55.77;38.30;;;;;;;10.35;83.47;101909.72;5059321;28;20205;-73
2021/11/11 02:12:29;;;;;;;50.30;36.40;;;;;;;10.02;84.21;101910.41;5058751;28;20265;-75
2021/11/11 02:14:55;;;;;;;53.00;37.13;;;;;;;9.99;84.41;101910.34;5058483;28;20464;-73
2021/11/11 02:17:29;;;;;;;53.47;37.40;;;;;;;9.93;84.83;101911.03;5059296;28;20435;-75
2021/11/11 02:19:59;;;;;;;55.13;35.70;;;;;;;9.80;85.40;101906.28;5058694;28;20173;-73
2021/11/11 02:22:25;;;;;;;52.00;36.23;;;;;;;9.47;86.56;101909.56;5058754;28;20416;-73
2021/11/11 02:24:50;;;;;;;52.73;35.27;;;;;;;9.73;85.89;101902.59;5059038;28;20397;-75
2021/11/11 02:27:15;;;;;;;59.70;37.43;;;;;;;10.01;84.27;101906.06;5058465;28;20266;-75
2021/11/11 02:29:41;;;;;;;52.20;36.67;;;;;;;10.13;84.27;101902.06;5059025;28;20248;-74
2021/11/11 02:32:07;;;;;;;53.90;35.97;;;;;;;10.01;84.86;101907.78;5058126;28;20468;-73
2021/11/11 02:34:32;;;;;;;54.00;36.03;;;;;;;9.89;85.50;101908.28;5058361;28;20209;-74
2021/11/11 02:37:00;;;;;;;61.47;38.40;;;;;;;9.94;85.31;101914.50;5058838;28;20401;-75
2021/11/11 02:39:34;;;;;;;61.03;38.00;;;;;;;9.79;85.21;101909.72;5058303;28;20184;-75
2021/11/11 02:41:59;;;;;;;56.70;37.40;;;;;;;9.90;84.83;101910.03;5058325;28;20670;-75
2021/11/11 02:44:26;;;;;;;64.17;37.90;;;;;;;9.86;85.06;101908.19;5058336;28;20395;-76
2021/11/11 02:46:52;;;;;;;59.83;37.87;;;;;;;9.57;86.33;101908.16;5057351;28;20398;-73
2021/11/11 02:49:18;;;;;;;67.80;39.00;;;;;;;9.87;85.00;101902.16;5058237;28;20393;-73
2021/11/11 02:51:43;;;;;;;73.50;38.63;;;;;;;10.13;84.53;101904.66;5058081;28;20765;-74
2021/11/11 02:54:09;;;;;;;59.50;38.30;;;;;;;9.89;85.09;101897.84;5057090;28;20209;-75
2021/11/11 02:56:34;;;;;;;60.00;38.40;;;;;;;10.22;83.77;101900.59;5058405;28;20181;-74
2021/11/11 02:58:59;;;;;;;62.47;39.17;;;;;;;9.88;85.09;101902.19;5058143;28;20219;-72
2021/11/11 03:01:25;;;;;;;61.70;39.10;;;;;;;9.92;85.14;101903.19;5058141;28;20253;-72
2021/11/11 03:03:50;;;;;;;60.97;38.27;;;;;;;9.95;84.74;101906.75;5058041;28;20178;-72
2021/11/11 03:06:15;;;;;;;70.17;38.83;;;;;;;9.93;85.20;101910.13;5057783;28;20174;-73
2021/11/11 03:08:40;;;;;;;68.03;38.30;;;;;;;9.78;86.30;101906.22;5058006;28;20442;-73
2021/11/11 03:11:06;;;;;;;67.10;39.63;;;;;;;9.80;85.13;101895.84;5058281;28;20559;-73
2021/11/11 03:13:31;;;;;;;65.53;38.63;;;;;;;10.01;84.75;101903.47;5057890;28;20201;-73
2021/11/11 03:15:57;;;;;;;67.83;38.10;;;;;;;9.69;86.35;101892.91;5057903;28;20200;-74
2021/11/11 03:18:22;;;;;;;67.77;40.03;;;;;;;9.81;86.59;101891.53;5040907;28;20173;-72
2021/11/11 03:20:48;;;;;;;64.77;37.47;;;;;;;9.81;85.98;101883.72;5057885;28;20264;-74
2021/11/11 03:23:13;;;;;;;60.93;35.17;;;;;;;9.98;85.08;101886.84;5057622;28;20500;-72
2021/11/11 03:25:40;;;;;;;69.07;39.67;;;;;;;9.76;85.75;101888.78;5040865;28;20169;-72
2021/11/11 03:28:06;;;;;;;60.33;36.53;;;;;;;9.94;85.09;101884.16;5057869;28;20232;-74
2021/11/11 03:30:31;;;;;;;41.83;22.60;;;;;;;12.19;85.47;101885.66;5039807;28;20704;-58
2021/11/11 03:32:57;;;;;;;34.27;20.90;;;;;;;14.00;78.33;101870.50;5058067;28;20166;-58
2021/11/11 03:35:23;;;;;;;50.07;33.37;;;;;;;11.88;75.91;101884.06;5057321;28;20650;-70
2021/11/11 03:37:50;;;;;;;48.43;32.37;;;;;;;11.22;78.43;101886.00;5057761;28;20508;-71
2021/11/11 03:40:18;;;;;;;49.17;34.00;;;;;;;10.48;81.56;101884.00;5058277;28;20424;-72
2021/11/11 03:42:46;;;;;;;57.57;36.30;;;;;;;10.32;82.94;101885.25;5057811;28;20437;-70
2021/11/11 03:45:12;;;;;;;53.13;32.60;;;;;;;10.50;82.18;101887.53;5058109;28;20420;-71
2021/11/11 03:47:38;;;;;;;57.13;33.77;;;;;;;10.07;84.61;101893.22;5058329;28;20757;-71
2021/11/11 03:50:04;;;;;;;51.93;33.20;;;;;;;9.93;84.81;101890.19;5057872;28;20181;-71
2021/11/11 03:52:29;;;;;;;52.70;34.87;;;;;;;9.76;85.70;101892.25;5057423;28;20225;-71
2021/11/11 03:54:54;;;;;;;54.90;32.83;;;;;;;10.02;84.99;101888.72;5058204;28;20459;-69
2021/11/11 03:57:20;;;;;;;60.90;34.67;;;;;;;9.95;85.58;101891.09;5057604;28;20181;-70
2021/11/11 03:59:45;;;;;;;51.87;32.83;;;;;;;10.12;84.89;101888.16;5060796;28;20562;-71
2021/11/11 04:02:13;;;;;;;57.00;34.70;;;;;;;9.96;84.94;101881.59;5061929;28;20166;-69
2021/11/11 04:04:39;;;;;;;55.87;33.23;;;;;;;9.81;86.21;101883.72;5061616;28;20184;-69
2021/11/11 04:07:04;;;;;;;59.80;34.50;;;;;;;9.99;84.97;101883.41;5061483;28;20420;-71
2021/11/11 04:09:29;;;;;;;60.87;36.30;;;;;;;9.96;85.44;101881.59;5061690;28;20215;-70
2021/11/11 04:11:55;;;;;;;57.87;35.73;;;;;;;9.95;85.42;101872.88;5061301;28;20178;-70
2021/11/11 04:14:20;;;;;;;65.20;38.17;;;;;;;9.91;85.95;101880.56;5061324;28;20337;-70
2021/11/11 04:16:47;;;;;;;67.80;39.23;;;;;;;10.02;84.86;101876.56;5061841;28;20165;-71
2021/11/11 04:19:13;;;;;;;67.50;37.67;;;;;;;9.60;86.98;101872.66;5043961;28;20181;-71
2021/11/11 04:21:38;;;;;;;66.60;38.00;;;;;;;10.09;85.93;101875.00;5061072;28;20809;-71
2021/11/11 04:24:04;;;;;;;72.30;40.30;;;;;;;10.18;84.59;101882.25;5061477;28;20177;-71
2021/11/11 04:26:32;;;;;;;73.10;39.57;;;;;;;9.87;85.86;101878.69;5061019;28;20170;-72
2021/11/11 04:33:51;;;;;;;78.10;42.23;;;;;;;9.77;86.06;101877.53;5060855;28;20205;-70
2021/11/11 04:44:39;;;;;;;76.13;41.53;;;;;;;10.07;85.54;101877.59;5060815;28;20434;-71
2021/11/11 04:49:49;;;;;;;80.67;43.00;;;;;;;9.87;86.54;101879.56;5060709;28;20433;-71
2021/11/11 04:52:23;;;;;;;69.23;42.50;;;;;;;9.87;86.64;101879.56;5060255;28;20228;-71
2021/11/11 05:03:14;;;;;;;87.13;43.73;;;;;;;9.83;86.59;101876.84;5020096;28;20398;-71
2021/11/11 05:05:40;;;;;;;89.23;45.67;;;;;;;9.87;87.06;101878.69;5060456;28;20418;-71
2021/11/11 05:08:06;;;;;;;82.93;44.97;;;;;;;10.02;85.98;101883.50;5060358;28;20412;-70
2021/11/11 05:10:31;;;;;;;81.93;45.03;;;;;;;10.06;85.39;101886.22;5059247;28;20780;-70
2021/11/11 05:12:56;;;;;;;74.70;43.60;;;;;;;9.99;86.58;101886.03;5060209;28;20260;-71
2021/11/11 05:15:22;;;;;;;87.73;45.13;;;;;;;9.95;85.39;101887.63;5060518;28;20205;-70
2021/11/11 05:17:48;;;;;;;76.93;42.60;;;;;;;9.82;86.31;101888.09;5060392;28;20232;-70
2021/11/11 05:20:15;;;;;;;81.33;44.47;;;;;;;9.88;85.90;101890.91;5042867;28;20432;-71
2021/11/11 05:22:41;;;;;;;87.30;46.77;;;;;;;10.07;85.42;101895.81;5060240;28;20527;-71
2021/11/11 05:25:07;;;;;;;77.33;45.40;;;;;;;10.11;85.78;101889.00;5059895;28;20389;-70
2021/11/11 05:27:32;;;;;;;81.10;45.20;;;;;;;10.00;86.19;101891.28;5060064;28;20792;-70
2021/11/11 05:29:57;;;;;;;88.37;49.90;;;;;;;9.81;86.44;101891.53;5060516;28;20173;-71
2021/11/11 05:32:23;;;;;;;85.07;45.90;;;;;;;9.86;86.05;101880.41;5059554;28;20189;-70
2021/11/11 05:34:48;;;;;;;77.57;43.73;;;;;;;10.12;85.73;101877.75;5059884;28;20517;-71
2021/11/11 05:37:15;;;;;;;77.43;44.57;;;;;;;9.89;86.30;101874.41;5060342;28;20211;-71
2021/11/11 05:39:40;;;;;;;86.80;44.67;;;;;;;9.66;87.91;101872.00;5059842;28;20264;-69
2021/11/11 05:42:06;;;;;;;80.93;44.13;;;;;;;10.05;86.60;101868.84;5059578;28;20791;-71
2021/11/11 05:44:31;;;;;;;83.70;44.87;;;;;;;10.22;84.75;101863.25;5060137;28;20181;-71
2021/11/11 05:46:57;;;;;;;84.17;47.80;;;;;;;10.09;85.01;101862.00;5059472;28;20173;-71
2021/11/11 05:49:24;;;;;;;76.23;43.97;;;;;;;10.01;86.20;101864.38;5059516;28;20185;-71
2021/11/11 05:51:50;;;;;;;88.43;46.43;;;;;;;9.81;86.95;101865.47;5059368;28;20602;-72
2021/11/11 05:54:15;;;;;;;79.30;46.20;;;;;;;9.93;85.92;101868.44;5059314;28;20466;-71
2021/11/11 05:56:40;;;;;;;74.07;44.30;;;;;;;10.10;86.14;101875.06;5059542;28;20416;-71
2021/11/11 05:59:06;;;;;;;98.63;47.93;;;;;;;10.03;85.97;101872.25;5059342;28;20180;-71
2021/11/11 06:01:31;;;;;;;72.27;42.70;;;;;;;10.29;85.38;101883.44;5059126;28;20539;-72
2021/11/11 06:03:57;;;;;;;88.57;47.30;;;;;;;10.50;84.35;101883.22;5059952;28;20176;-71
2021/11/11 06:06:22;;;;;;;77.27;42.07;;;;;;;9.79;86.75;101881.06;5059187;28;20165;-71
2021/11/11 06:08:48;;;;;;;67.97;43.03;;;;;;;10.03;86.04;101880.94;5059087;28;20173;-70
2021/11/11 06:11:13;;;;;;;75.03;44.70;;;;;;;10.09;85.82;101875.91;5059366;28;20166;-71
2021/11/11 06:13:38;;;;;;;66.87;41.17;;;;;;;10.14;85.60;101888.19;5059039;28;20240;-71
2021/11/11 06:16:04;;;;;;;65.70;42.50;;;;;;;9.90;86.56;101890.09;5058970;28;20260;-71
2021/11/11 06:18:31;;;;;;;68.50;42.00;;;;;;;9.78;86.39;101888.00;5059164;28;20269;-72
2021/11/11 06:20:59;;;;;;;70.17;42.90;;;;;;;10.05;86.35;101894.00;5058309;28;20170;-72
2021/11/11 06:23:26;;;;;;;69.53;42.20;;;;;;;10.07;85.87;101888.00;5058967;28;20420;-72
2021/11/11 06:25:52;;;;;;;71.10;42.70;;;;;;;10.19;86.29;101894.41;5059271;28;20804;-71
2021/11/11 06:28:17;;;;;;;69.83;42.37;;;;;;;10.02;86.09;101897.41;5058681;28;20420;-70
2021/11/11 06:30:42;;;;;;;69.93;41.87;;;;;;;10.35;85.17;101899.28;5058581;28;20189;-69
2021/11/11 06:33:07;;;;;;;70.17;40.37;;;;;;;10.01;85.97;101905.16;5059074;28;20192;-70
2021/11/11 06:35:33;;;;;;;69.27;41.43;;;;;;;10.20;85.27;101901.41;5058610;28;20550;-69
2021/11/11 06:37:59;;;;;;;73.60;40.87;;;;;;;9.72;86.92;101890.41;5058742;28;20439;-68
2021/11/11 06:40:26;;;;;;;70.73;43.10;;;;;;;10.14;86.25;101896.00;5059391;28;20166;-70
2021/11/11 06:42:52;;;;;;;60.30;39.57;;;;;;;10.22;86.22;101902.34;5058547;28;20395;-70
2021/11/11 06:45:19;;;;;;;68.33;40.50;;;;;;;10.03;85.70;101906.13;5058745;28;20807;-71
2021/11/11 06:47:44;;;;;;;65.37;42.13;;;;;;;10.06;86.80;101907.06;5058690;28;20181;-71
2021/11/11 06:50:12;;;;;;;68.53;41.20;;;;;;;9.90;87.09;101910.03;5058348;28;20390;-71
2021/11/11 06:52:37;;;;;;;64.07;38.57;;;;;;;9.88;87.37;101896.97;5058050;28;20641;-71
2021/11/11 06:55:07;;;;;;;67.33;42.10;;;;;;;9.90;87.46;101897.94;5058796;28;20448;-71
2021/11/11 06:57:32;;;;;;;76.20;42.70;;;;;;;10.08;86.14;101894.09;5058386;28;20173;-71
2021/11/11 06:59:58;;;;;;;58.13;40.13;;;;;;;10.11;86.13;101896.81;5057920;28;20416;-71
2021/11/11 07:02:26;;;;;;;68.87;42.40;;;;;;;10.32;85.39;101893.94;5058222;28;20177;-70
2021/11/11 07:04:52;;;;;;;65.07;40.00;;;;;;;10.20;86.40;101896.19;5058129;28;20174;-69
2021/11/11 07:07:17;;;;;;;62.83;40.37;;;;;;;10.37;85.27;101889.78;5058238;28;20470;-71
2021/11/11 07:09:42;;;;;;;72.50;42.33;;;;;;;10.20;85.98;101904.00;5058474;28;20192;-71
2021/11/11 07:12:08;;;;;;;76.33;42.70;;;;;;;10.11;86.22;101908.09;5057751;28;20188;-71
2021/11/11 07:14:33;;;;;;;72.17;41.30;;;;;;;10.33;86.23;101900.06;5057962;28;20233;-70
2021/11/11 07:16:58;;;;;;;69.33;41.20;;;;;;;10.06;87.25;101909.69;5058465;28;20169;-71
2021/11/11 07:19:24;;;;;;;78.43;41.97;;;;;;;10.31;85.81;101904.31;5058054;28;20472;-71
2021/11/11 07:21:51;;;;;;;77.13;42.87;;;;;;;9.93;87.33;101911.03;5057975;28;20473;-71
2021/11/11 07:24:17;;;;;;;108.57;43.23;;;;;;;10.24;86.44;101906.75;5058382;28;20162;-71
2021/11/11 07:26:42;;;;;;;83.20;41.67;;;;;;;10.38;85.81;101911.53;5057854;28;20445;-71
2021/11/11 07:29:08;;;;;;;75.80;41.80;;;;;;;10.34;86.02;101915.72;5057881;28;20201;-71
2021/11/11 07:31:34;;;;;;;79.30;41.00;;;;;;;10.23;86.42;101912.81;5058128;28;20189;-71
2021/11/11 07:33:59;;;;;;;74.73;42.40;;;;;;;10.53;85.59;101913.69;5059643;28;20240;-72
2021/11/11 07:36:25;;;;;;;82.57;42.70;;;;;;;10.60;84.78;101915.63;5044637;28;20185;-70
2021/11/11 07:38:52;;;;;;;78.17;43.40;;;;;;;10.33;86.04;101918.28;5062600;28;20166;-71
2021/11/11 07:41:17;;;;;;;84.30;42.67;;;;;;;10.18;86.53;101921.34;5059661;28;20228;-71
2021/11/11 07:43:44;;;;;;;82.80;42.50;;;;;;;10.30;86.40;101921.69;5061666;28;20411;-70
2021/11/11 07:46:09;;;;;;;80.53;41.50;;;;;;;10.61;85.27;101922.63;5062278;28;20173;-73
2021/11/11 07:48:35;;;;;;;77.03;42.67;;;;;;;10.67;85.09;101924.50;5061698;28;20507;-74
2021/11/11 07:51:00;;;;;;;67.43;40.90;;;;;;;10.38;85.68;101928.03;5059792;28;20238;-75
2021/11/11 07:53:29;;;;;;;83.63;41.33;;;;;;;10.55;84.93;101925.94;5042146;28;20492;-74
2021/11/11 07:55:54;;;;;;;72.23;39.77;;;;;;;10.45;85.78;101929.97;5041578;28;20169;-74
2021/11/11 07:58:20;;;;;;;75.03;43.60;;;;;;;10.26;86.39;101932.88;5041357;28;20672;-74
2021/11/11 08:00:46;;;;;;;76.27;43.00;;;;;;;10.30;86.67;101939.94;5042057;28;20170;-75
2021/11/11 08:03:12;;;;;;;76.33;44.90;;;;;;;10.61;85.73;101930.44;5041400;28;20170;-75
2021/11/11 08:05:39;;;;;;;80.87;44.63;;;;;;;10.76;85.27;101925.66;5041367;28;20166;-75
2021/11/11 08:08:06;;;;;;;81.77;43.90;;;;;;;10.64;85.84;101927.91;5024644;28;20410;-75
2021/11/11 08:10:31;;;;;;;74.20;43.23;;;;;;;10.51;85.92;101942.31;5041338;28;20424;-74
2021/11/11 08:12:56;;;;;;;80.10;42.30;;;;;;;10.34;86.15;101938.31;5041073;28;20427;-74
2021/11/11 08:15:22;;;;;;;74.30;45.27;;;;;;;10.43;86.22;101934.28;5041443;28;20198;-74
2021/11/11 08:17:47;;;;;;;84.67;45.80;;;;;;;10.36;86.62;101926.22;5041326;28;20170;-74
2021/11/11 08:20:13;;;;;;;87.93;45.20;;;;;;;10.47;86.10;101923.94;5041364;28;20170;-73
2021/11/11 08:22:39;;;;;;;91.00;50.20;;;;;;;10.39;85.82;101926.31;5041498;28;20197;-73
2021/11/11 08:25:07;;;;;;;136.07;51.13;;;;;;;10.75;85.73;101929.09;5024109;28;20887;-73
2021/11/11 08:27:32;;;;;;;78.97;46.23;;;;;;;10.53;85.60;101925.00;5041097;28;20392;-70
2021/11/11 08:29:58;;;;;;;81.77;47.53;;;;;;;10.68;85.22;101919.34;5041385;28;20397;-71
2021/11/11 08:32:23;;;;;;;82.00;46.70;;;;;;;10.88;84.86;101921.59;5040758;28;20201;-69
2021/11/11 08:34:49;;;;;;;83.40;46.30;;;;;;;10.63;85.54;101920.94;5041006;28;20229;-70
2021/11/11 08:37:14;;;;;;;74.83;46.37;;;;;;;10.81;85.46;101914.47;5041484;28;20167;-69
2021/11/11 08:39:41;;;;;;;79.07;46.47;;;;;;;10.64;85.63;101917.50;5040753;28;20516;-72
2021/11/11 08:42:07;;;;;;;76.73;46.47;;;;;;;10.91;84.27;101917.38;5040644;28;20178;-70
2021/11/11 08:44:33;;;;;;;80.43;47.00;;;;;;;10.73;84.09;101922.97;5041002;28;20397;-71
2021/11/11 08:46:58;;;;;;;83.13;46.27;;;;;;;10.89;84.55;101921.66;5040704;28;20463;-72
2021/11/11 08:49:24;;;;;;;78.13;47.50;;;;;;;10.69;84.79;101921.13;5040692;28;20508;-72
2021/11/11 08:51:52;;;;;;;68.07;42.83;;;;;;;10.51;85.04;101917.97;5040704;28;20229;-73
2021/11/11 08:54:19;;;;;;;71.33;44.37;;;;;;;10.51;85.75;101931.88;5023314;28;20226;-74
2021/11/11 08:56:47;;;;;;;67.10;44.13;;;;;;;11.11;83.56;101925.72;5040633;28;20436;-73
2021/11/11 08:59:13;;;;;;;82.17;47.27;;;;;;;10.78;84.93;101918.78;5040443;28;20857;-75
2021/11/11 09:01:39;;;;;;;69.83;45.67;;;;;;;10.57;85.18;101920.78;5040558;28;20396;-73
2021/11/11 09:04:04;;;;;;;84.87;47.00;;;;;;;10.84;84.32;101918.03;5041106;28;20166;-74
2021/11/11 09:06:30;;;;;;;72.70;45.30;;;;;;;10.93;83.69;101923.53;5040649;28;20262;-74
2021/11/11 09:08:55;;;;;;;70.10;44.30;;;;;;;10.93;84.04;101920.00;5040452;28;20170;-74
2021/11/11 09:11:22;;;;;;;62.30;42.47;;;;;;;10.55;85.22;101922.44;5040388;28;20178;-73
2021/11/11 09:13:48;;;;;;;68.90;44.13;;;;;;;10.63;85.08;101920.06;5040054;28;20194;-72
2021/11/11 09:16:13;;;;;;;71.40;44.17;;;;;;;11.16;83.32;101922.34;5040202;28;20409;-73
2021/11/11 09:18:39;;;;;;;61.43;42.23;;;;;;;10.92;84.01;101920.88;5040403;28;20167;-73
2021/11/11 09:21:07;;;;;;;63.83;42.53;;;;;;;10.82;83.98;101921.44;5039990;28;20208;-75
2021/11/11 09:23:33;;;;;;;66.27;41.57;;;;;;;11.07;83.84;101923.88;5039825;28;20391;-72
2021/11/11 09:26:00;;;;;;;57.70;42.23;;;;;;;11.04;83.84;101918.59;5040228;28;20726;-72
2021/11/11 09:28:26;;;;;;;59.07;41.97;;;;;;;10.85;84.12;101918.91;5040010;28;20407;-72
2021/11/11 09:30:51;;;;;;;60.90;41.73;;;;;;;11.10;83.60;101926.56;5022551;28;20412;-72
2021/11/11 09:33:17;;;;;;;63.87;42.30;;;;;;;10.86;84.50;101931.13;5040213;28;20170;-73
2021/11/11 09:35:42;;;;;;;57.77;41.00;;;;;;;10.77;84.66;101926.53;5039827;28;20213;-71
2021/11/11 09:38:08;;;;;;;60.97;40.90;;;;;;;10.59;85.07;101925.19;5039827;28;20270;-71
2021/11/11 09:40:33;;;;;;;55.40;38.20;;;;;;;10.78;85.00;101926.59;5040015;28;20225;-71
2021/11/11 09:42:59;;;;;;;55.43;40.30;;;;;;;10.75;85.40;101920.41;5039577;28;20178;-71
2021/11/11 09:45:29;;;;;;;59.23;39.97;;;;;;;10.71;84.96;101919.41;5022600;28;20173;-70
2021/11/11 09:47:54;;;;;;;57.90;39.67;;;;;;;10.96;83.97;101925.34;5039881;28;20396;-72
2021/11/11 09:50:21;;;;;;;55.83;40.20;;;;;;;10.88;83.74;101926.81;5039616;28;20413;-71
2021/11/11 09:52:49;;;;;;;58.20;41.40;;;;;;;10.76;84.06;101917.81;5039301;28;20583;-72
2021/11/11 10:00:46;;;;;;;54.77;39.37;;;;;;;11.03;83.33;101916.81;5039595;28;20459;-71
2021/11/11 10:03:12;;;;;;;54.00;40.10;;;;;;;10.81;83.95;101912.75;5039184;28;20400;-71
2021/11/11 10:05:37;;;;;;;53.43;40.90;;;;;;;10.84;84.49;101919.75;5039128;28;20675;-71
2021/11/11 10:08:05;;;;;;;57.90;39.47;;;;;;;11.02;83.32;101916.78;5039529;28;20257;-72
2021/11/11 10:10:40;;;;;;;56.30;39.40;;;;;;;11.15;83.35;101928.41;5039032;28;20176;-72
2021/11/11 10:13:10;;;;;;;60.27;40.40;;;;;;;11.02;83.57;101920.25;5039941;28;20383;-76
2021/11/11 10:16:03;;;;;;;59.67;39.90;;;;;;;10.89;84.20;101924.28;5039219;28;20694;-77
2021/11/11 10:18:43;;;;;;;55.53;39.57;;;;;;;10.97;85.16;101921.00;5039239;28;20439;-75
2021/11/11 10:21:29;;;;;;;56.03;38.73;;;;;;;11.39;83.63;101916.00;5038903;28;20490;-74
2021/11/11 10:23:58;;;;;;;57.37;39.10;;;;;;;10.91;84.65;101921.72;5038880;28;20412;-73
2021/11/11 10:26:40;;;;;;;54.77;39.27;;;;;;;11.04;84.47;101929.03;5038741;28;20496;-73
2021/11/11 10:29:07;;;;;;;50.63;37.27;;;;;;;11.35;83.18;101919.41;5038893;28;20414;-74
2021/11/11 10:31:33;;;;;;;50.00;35.90;;;;;;;11.05;83.87;101927.28;5021539;28;20448;-74
2021/11/11 10:34:10;;;;;;;50.90;36.90;;;;;;;11.22;83.46;101918.19;5021333;28;20825;-73
2021/11/11 10:36:44;;;;;;;52.30;35.87;;;;;;;11.53;81.76;101915.44;5038635;28;20209;-73
2021/11/11 10:39:24;;;;;;;53.40;36.17;;;;;;;11.48;82.13;101910.13;5021589;28;20787;-73
2021/11/11 10:41:52;;;;;;;54.23;36.00;;;;;;;11.62;82.34;101913.06;5038365;28;20448;-73
2021/11/11 10:44:30;;;;;;;55.70;38.70;;;;;;;11.34;83.78;101907.19;5038552;28;20399;-73
2021/11/11 10:46:59;;;;;;;45.87;33.70;;;;;;;11.52;82.58;101913.72;5038667;28;20481;-73
2021/11/11 10:49:29;;;;;;;44.30;35.00;;;;;;;11.57;82.29;101914.72;5038328;28;20545;-71
2021/11/11 10:51:56;;;;;;;48.17;34.70;;;;;;;11.48;82.67;101911.88;5038172;28;20735;-70
2021/11/11 10:54:21;;;;;;;47.10;33.43;;;;;;;11.38;82.52;101909.03;5021249;28;20462;-73
2021/11/11 10:56:47;;;;;;;49.13;34.80;;;;;;;11.56;82.60;101905.09;5038931;28;20774;-71
2021/11/11 10:59:16;;;;;;;43.73;32.73;;;;;;;11.58;82.24;101900.78;5038759;28;20170;-71
2021/11/11 11:01:42;;;;;;;45.20;31.80;;;;;;;11.72;82.19;101898.53;5038167;28;20406;-71
2021/11/11 11:04:23;;;;;;;44.67;33.13;;;;;;;11.67;82.56;101893.16;5038595;28;20384;-72
2021/11/11 11:06:48;;;;;;;38.73;32.17;;;;;;;11.38;82.78;101898.56;5038259;28;20391;-70
2021/11/11 11:09:15;;;;;;;47.43;33.10;;;;;;;11.54;83.60;101891.09;5020399;28;20410;-75
2021/11/11 11:11:43;;;;;;;38.43;29.30;;;;;;;11.56;82.65;101894.66;5038343;28;20166;-74
2021/11/11 11:14:15;;;;;;;45.50;29.80;;;;;;;11.69;81.71;101895.81;5038773;28;20734;-74
2021/11/11 11:16:41;;;;;;;41.73;31.03;;;;;;;11.49;82.30;101901.44;5038232;28;20692;-73
2021/11/11 11:19:11;;;;;;;39.57;30.87;;;;;;;11.23;82.90;101908.59;5021035;28;20470;-73
2021/11/11 11:21:41;;;;;;;37.70;29.93;;;;;;;11.55;83.11;101903.31;5038324;28;20452;-77
2021/11/11 11:24:17;;;;;;;45.03;34.57;;;;;;;11.45;83.11;101905.69;5038243;28;20514;-74
2021/11/11 11:26:53;;;;;;;50.07;33.23;;;;;;;11.28;84.10;101901.78;5038108;28;20383;-74
2021/11/11 11:29:25;;;;;;;43.67;32.27;;;;;;;11.37;83.53;101902.03;5038228;28;20387;-74
2021/11/11 11:31:53;;;;;;;49.87;33.40;;;;;;;11.41;83.59;101893.41;5037890;28;20433;-75
2021/11/11 11:34:28;;;;;;;43.80;33.23;;;;;;;11.25;83.87;101893.88;5037880;28;20828;-74
2021/11/11 11:36:53;;;;;;;42.57;33.60;;;;;;;11.10;84.12;101886.53;5037986;28;20702;-74
2021/11/11 11:39:25;;;;;;;40.33;32.17;;;;;;;11.34;82.86;101881.06;5038214;28;20407;-74